Time;durP1;ratioP1;P1;durP2;ratioP2;P2;SDS_P1;SDS_P2;PMS_P1;PMS_P2;Temp;Humidity;BMP_temperature;BMP_pressure;BME280_temperature;BME280_humidity;BME280_pressure;Samples;Min_cycle;Max_cycle;Signal;HPM_P1;HPM_P2
2022/08/13 00:01:26;;;;;;;2.40;2.30;;;24.50;41.30;;;;;;4763927;29;21239;-62
2022/08/13 00:03:55;;;;;;;2.30;2.20;;;24.50;41.30;;;;;;4757435;29;20602;-60
2022/08/13 00:07:05;;;;;;;2.20;2.10;;;24.50;41.30;;;;;;4758406;29;20487;-61
2022/08/13 00:09:12;;;;;;;2.33;2.23;;;24.50;41.30;;;;;;4753035;29;22583;-61
2022/08/13 00:14:30;;;;;;;2.10;2.00;;;24.50;41.30;;;;;;4755766;29;20536;-62
2022/08/13 00:16:56;;;;;;;2.00;1.90;;;24.50;41.30;;;;;;4759854;29;20489;-64
2022/08/13 00:19:26;;;;;;;2.83;2.40;;;24.50;41.30;;;;;;4762086;29;20813;-62
2022/08/13 00:21:53;;;;;;;2.27;2.17;;;24.50;41.30;;;;;;4759898;29;20306;-64
2022/08/13 00:24:19;;;;;;;2.27;2.17;;;24.50;41.30;;;;;;4764993;29;21064;-59
2022/08/13 00:26:44;;;;;;;2.20;2.10;;;24.50;41.30;;;;;;4758942;29;20468;-64
2022/08/13 00:29:10;;;;;;;2.00;1.90;;;24.50;41.20;;;;;;4762948;29;20606;-59
2022/08/13 00:31:37;;;;;;;2.00;1.90;;;24.50;41.30;;;;;;4757409;29;20235;-60
2022/08/13 00:34:03;;;;;;;2.03;1.93;;;24.50;41.20;;;;;;4761737;29;20239;-63
2022/08/13 00:36:34;;;;;;;2.10;2.00;;;24.50;41.20;;;;;;4758975;29;20478;-65
2022/08/13 00:39:04;;;;;;;2.30;2.10;;;24.50;41.30;;;;;;4758733;29;20477;-61
2022/08/13 00:41:39;;;;;;;1.83;1.73;;;24.50;41.20;;;;;;4754253;29;20971;-69
2022/08/13 00:44:11;;;;;;;2.57;2.47;;;24.50;41.20;;;;;;4765479;29;20540;-60
2022/08/13 00:46:38;;;;;;;1.97;1.87;;;24.50;41.20;;;;;;4763518;29;20491;-60
2022/08/13 00:49:05;;;;;;;1.70;1.60;;;24.50;41.10;;;;;;4764105;29;20523;-60
2022/08/13 00:51:33;;;;;;;1.80;1.70;;;24.50;41.20;;;;;;4763653;29;20971;-62
2022/08/13 00:54:03;;;;;;;2.03;1.93;;;24.50;41.20;;;;;;4768124;29;20522;-60
2022/08/13 00:56:34;;;;;;;2.00;1.80;;;24.50;41.10;;;;;;4761397;29;20480;-59
2022/08/13 00:59:07;;;;;;;2.13;2.03;;;24.50;41.10;;;;;;4769882;29;20495;-61
2022/08/13 01:01:36;;;;;;;1.90;1.80;;;24.50;41.10;;;;;;4765275;29;20459;-63
2022/08/13 01:04:03;;;;;;;1.90;1.80;;;24.50;41.10;;;;;;4762726;29;20544;-60
2022/08/13 01:06:30;;;;;;;1.80;1.70;;;24.50;41.10;;;;;;4762476;29;21424;-63
2022/08/13 01:08:56;;;;;;;1.97;1.87;;;24.50;41.10;;;;;;4769079;29;20484;-63
2022/08/13 01:11:23;;;;;;;1.80;1.70;;;24.50;41.10;;;;;;4764815;29;20459;-60
2022/08/13 01:13:50;;;;;;;2.03;1.90;;;24.50;41.00;;;;;;4767430;29;20227;-60
2022/08/13 01:16:16;;;;;;;2.00;1.90;;;24.50;41.10;;;;;;4766190;29;20463;-62
2022/08/13 01:18:45;;;;;;;1.90;1.80;;;24.50;41.00;;;;;;4765149;29;20476;-61
2022/08/13 01:21:15;;;;;;;2.10;2.00;;;24.50;41.00;;;;;;4767367;29;20277;-64
2022/08/13 01:23:45;;;;;;;1.90;1.80;;;24.50;41.00;;;;;;4764424;29;20503;-64
2022/08/13 01:26:13;;;;;;;1.70;1.60;;;24.50;41.00;;;;;;4764929;29;20480;-60
2022/08/13 01:28:40;;;;;;;1.90;1.80;;;24.50;41.00;;;;;;4764846;29;21214;-59
2022/08/13 01:31:06;;;;;;;1.87;1.77;;;24.50;41.00;;;;;;4763914;29;20508;-60
2022/08/13 01:33:36;;;;;;;1.90;1.80;;;24.50;41.00;;;;;;4765931;29;20475;-69
2022/08/13 01:36:04;;;;;;;1.93;1.83;;;24.50;41.00;;;;;;4764464;29;20499;-60
2022/08/13 01:38:31;;;;;;;1.70;1.60;;;24.50;41.00;;;;;;4762591;29;20567;-67
2022/08/13 01:40:56;;;;;;;2.07;1.97;;;24.50;40.90;;;;;;4762049;29;20960;-63
2022/08/13 01:43:28;;;;;;;1.87;1.77;;;24.50;41.00;;;;;;4765649;29;20463;-60
2022/08/13 01:45:55;;;;;;;1.60;1.50;;;24.50;40.90;;;;;;4766007;29;20232;-63
2022/08/13 01:51:21;;;;;;;2.10;2.00;;;24.50;40.90;;;;;;4765115;29;20632;-59
2022/08/13 01:53:53;;;;;;;1.97;1.87;;;24.50;40.90;;;;;;4766412;29;20464;-59
2022/08/13 01:56:23;;;;;;;1.93;1.83;;;24.50;40.90;;;;;;4759910;29;20895;-60
2022/08/13 01:58:53;;;;;;;2.03;1.93;;;24.50;40.80;;;;;;4757254;29;20484;-60
2022/08/13 02:01:24;;;;;;;1.77;1.67;;;24.50;40.80;;;;;;4761265;29;20966;-65
2022/08/13 02:03:51;;;;;;;1.70;1.60;;;24.50;40.80;;;;;;4762806;29;20636;-63
2022/08/13 02:06:21;;;;;;;1.73;1.63;;;24.50;40.90;;;;;;4763367;29;20563;-62
2022/08/13 02:08:50;;;;;;;1.90;1.80;;;24.50;40.80;;;;;;4746442;29;20567;-60
2022/08/13 02:11:16;;;;;;;2.20;2.10;;;24.50;40.80;;;;;;4757045;29;20575;-60
2022/08/13 02:13:42;;;;;;;1.83;1.73;;;24.50;40.80;;;;;;4765030;29;20570;-66
2022/08/13 02:16:08;;;;;;;1.93;1.83;;;24.50;40.70;;;;;;4759216;29;20845;-59
2022/08/13 02:18:34;;;;;;;2.17;1.60;;;24.50;40.80;;;;;;4762555;29;20240;-62
2022/08/13 02:21:02;;;;;;;1.73;1.63;;;24.50;40.80;;;;;;4765799;29;20234;-60
2022/08/13 02:23:33;;;;;;;1.97;1.87;;;24.50;40.70;;;;;;4763602;29;20481;-63
2022/08/13 02:26:05;;;;;;;1.70;1.60;;;24.50;40.80;;;;;;4766715;29;21048;-63
2022/08/13 02:28:33;;;;;;;2.00;1.60;;;24.40;40.70;;;;;;4761237;29;20463;-65
2022/08/13 02:30:58;;;;;;;1.70;1.60;;;24.50;40.70;;;;;;4759503;29;20543;-59
2022/08/13 02:33:25;;;;;;;1.60;1.50;;;24.50;40.70;;;;;;4761751;29;20925;-60
2022/08/13 02:35:51;;;;;;;1.70;1.60;;;24.50;40.70;;;;;;4762526;29;20593;-60
2022/08/13 02:38:17;;;;;;;1.80;1.70;;;24.50;40.70;;;;;;4762323;29;20455;-59
2022/08/13 02:43:31;;;;;;;1.80;1.70;;;24.50;40.70;;;;;;4759957;29;21060;-62
2022/08/13 02:46:00;;;;;;;3.00;1.60;;;24.50;40.70;;;;;;4760179;29;20599;-61
2022/08/13 02:48:26;;;;;;;1.57;1.47;;;24.50;40.70;;;;;;4762318;29;20496;-63
2022/08/13 02:50:54;;;;;;;1.60;1.50;;;24.50;40.70;;;;;;4760147;29;20870;-64
2022/08/13 02:53:20;;;;;;;1.70;1.60;;;24.50;40.70;;;;;;4761872;29;20236;-66
2022/08/13 02:55:47;;;;;;;1.70;1.60;;;24.50;40.70;;;;;;4762168;29;20530;-63
2022/08/13 02:58:17;;;;;;;1.87;1.77;;;24.50;40.70;;;;;;4759234;29;21330;-62
2022/08/13 03:00:49;;;;;;;1.93;1.83;;;24.50;40.70;;;;;;4758535;29;20488;-69
2022/08/13 03:03:19;;;;;;;1.60;1.50;;;24.40;40.70;;;;;;4762080;29;20847;-65
2022/08/13 03:05:45;;;;;;;2.50;1.60;;;24.50;40.70;;;;;;4751917;29;20503;-61
2022/08/13 03:08:11;;;;;;;1.50;1.40;;;24.40;40.30;;;;;;4763677;29;20490;-59
2022/08/13 03:10:39;;;;;;;1.93;1.77;;;24.50;40.10;;;;;;4760799;29;20525;-59
2022/08/13 03:13:07;;;;;;;1.73;1.63;;;24.50;39.70;;;;;;4758174;29;20484;-72
2022/08/13 03:15:35;;;;;;;1.70;1.60;;;24.50;39.40;;;;;;4762643;29;20476;-62
2022/08/13 03:18:01;;;;;;;1.60;1.50;;;24.50;39.00;;;;;;4755375;29;20841;-67
2022/08/13 03:20:27;;;;;;;1.93;1.77;;;24.50;38.60;;;;;;4756565;29;20465;-63
2022/08/13 03:22:58;;;;;;;1.80;1.70;;;24.50;38.30;;;;;;4761909;29;20811;-61
2022/08/13 03:25:26;;;;;;;1.70;1.60;;;24.50;38.10;;;;;;4761597;29;20224;-61
2022/08/13 03:27:53;;;;;;;1.80;1.70;;;24.50;37.60;;;;;;4760292;29;20529;-71
2022/08/13 03:30:23;;;;;;;2.23;1.70;;;24.50;37.60;;;;;;4757876;29;21998;-66
2022/08/13 03:32:51;;;;;;;1.50;1.40;;;24.50;37.60;;;;;;4758469;29;20508;-59
2022/08/13 03:35:22;;;;;;;2.00;1.90;;;24.50;37.60;;;;;;4759409;29;20532;-64
2022/08/13 03:37:53;;;;;;;12.00;2.23;;;24.50;37.60;;;;;;4757777;29;20507;-64
2022/08/13 03:40:20;;;;;;;1.80;1.70;;;24.50;37.60;;;;;;4755489;29;20899;-63
2022/08/13 03:42:50;;;;;;;1.90;1.80;;;24.50;37.60;;;;;;4756917;29;20567;-64
2022/08/13 03:45:17;;;;;;;2.00;1.90;;;24.40;37.50;;;;;;4758910;29;20476;-60
2022/08/13 03:47:43;;;;;;;1.70;1.60;;;24.40;37.50;;;;;;4759141;29;22108;-68
2022/08/13 03:50:10;;;;;;;1.60;1.50;;;24.50;37.60;;;;;;4752554;29;21040;-67
2022/08/13 03:52:37;;;;;;;1.87;1.60;;;24.40;37.60;;;;;;4760646;29;20467;-61
2022/08/13 03:55:06;;;;;;;1.60;1.50;;;24.40;37.90;;;;;;4765980;29;20815;-60
2022/08/13 03:57:32;;;;;;;1.63;1.53;;;24.50;38.10;;;;;;4758713;29;20561;-61
2022/08/13 03:59:59;;;;;;;2.20;2.00;;;24.40;38.00;;;;;;4765016;29;21194;-59
2022/08/13 04:02:25;;;;;;;1.70;1.60;;;24.40;38.10;;;;;;4761786;29;20771;-59
2022/08/13 04:04:51;;;;;;;1.87;1.77;;;24.40;38.20;;;;;;4758358;29;20510;-66
2022/08/13 04:07:20;;;;;;;1.80;1.70;;;24.40;38.20;;;;;;4762486;29;20475;-64
2022/08/13 04:09:46;;;;;;;4.30;1.43;;;24.40;38.20;;;;;;4767400;29;20251;-62
2022/08/13 04:12:12;;;;;;;1.90;1.80;;;24.40;38.30;;;;;;4761599;29;20486;-60
2022/08/13 04:14:39;;;;;;;1.70;1.60;;;24.40;38.40;;;;;;4759685;29;20470;-65
2022/08/13 04:17:08;;;;;;;1.80;1.70;;;24.40;38.50;;;;;;4759964;29;20227;-62
2022/08/13 04:19:36;;;;;;;1.63;1.53;;;24.40;38.50;;;;;;4764026;29;20579;-63
2022/08/13 04:22:04;;;;;;;1.90;1.80;;;24.40;38.50;;;;;;4759836;29;20874;-61
2022/08/13 04:24:33;;;;;;;1.90;1.80;;;24.40;38.50;;;;;;4764313;29;20476;-61
2022/08/13 04:26:59;;;;;;;1.80;1.70;;;24.40;38.50;;;;;;4765136;29;20826;-64
2022/08/13 04:29:25;;;;;;;2.37;2.27;;;24.40;38.50;;;;;;4755252;29;20552;-60
2022/08/13 04:31:51;;;;;;;2.00;1.90;;;24.40;38.50;;;;;;4757716;29;21451;-62
2022/08/13 04:34:22;;;;;;;1.70;1.60;;;24.40;38.60;;;;;;4762683;29;20235;-63
2022/08/13 04:36:49;;;;;;;1.67;1.57;;;24.40;38.60;;;;;;4763230;29;20472;-59
2022/08/13 04:39:15;;;;;;;3.50;1.60;;;24.40;38.60;;;;;;4755463;29;20583;-60
2022/08/13 04:41:43;;;;;;;2.00;1.90;;;24.40;38.60;;;;;;4761744;29;21075;-61
2022/08/13 04:44:09;;;;;;;1.90;1.80;;;24.40;38.60;;;;;;4759818;29;20229;-68
2022/08/13 04:46:34;;;;;;;1.80;1.70;;;24.40;38.60;;;;;;4757849;29;20457;-63
2022/08/13 04:49:00;;;;;;;2.70;1.97;;;24.40;38.60;;;;;;4762957;29;22186;-65
2022/08/13 04:51:26;;;;;;;2.10;1.80;;;24.40;38.60;;;;;;4760922;29;21182;-62
2022/08/13 04:53:52;;;;;;;1.80;1.70;;;24.40;38.60;;;;;;4758142;29;20274;-64
2022/08/13 04:56:18;;;;;;;2.00;1.80;;;24.40;38.60;;;;;;4761360;29;20262;-59
2022/08/13 04:58:47;;;;;;;2.00;1.90;;;24.40;38.60;;;;;;4763414;29;20478;-66
2022/08/13 05:01:13;;;;;;;2.00;1.90;;;24.40;38.50;;;;;;4761272;29;20477;-60
2022/08/13 05:03:41;;;;;;;3.10;1.90;;;24.40;38.50;;;;;;4762885;29;20476;-59
2022/08/13 05:06:12;;;;;;;1.80;1.70;;;24.40;38.50;;;;;;4776123;29;21005;-59
2022/08/13 05:08:39;;;;;;;1.93;1.83;;;24.50;38.50;;;;;;4762915;29;20477;-59
2022/08/13 05:11:06;;;;;;;2.27;2.17;;;24.50;38.50;;;;;;4763519;29;20487;-61
2022/08/13 05:13:36;;;;;;;2.03;1.80;;;24.50;39.30;;;;;;4749262;29;21050;-61
2022/08/13 05:16:08;;;;;;;2.00;1.90;;;24.50;38.40;;;;;;4759510;29;20475;-61
2022/08/13 05:18:36;;;;;;;1.90;1.80;;;24.50;38.40;;;;;;4761978;29;20483;-60
2022/08/13 05:21:05;;;;;;;2.50;2.40;;;24.50;38.40;;;;;;4765012;29;23105;-68
2022/08/13 05:23:34;;;;;;;1.90;1.80;;;24.50;38.40;;;;;;4758759;29;20468;-64
2022/08/13 05:26:00;;;;;;;2.03;1.83;;;24.50;38.40;;;;;;4759929;29;20556;-61
2022/08/13 05:28:27;;;;;;;3.00;2.13;;;24.50;38.30;;;;;;4765563;29;20483;-62
2022/08/13 05:30:53;;;;;;;2.00;1.90;;;24.50;38.30;;;;;;4763119;29;20240;-62
2022/08/13 05:33:24;;;;;;;2.10;2.00;;;24.50;38.30;;;;;;4765691;29;20487;-62
2022/08/13 05:35:53;;;;;;;2.20;2.10;;;24.50;38.20;;;;;;4762780;29;20524;-62
2022/08/13 05:38:23;;;;;;;2.33;2.13;;;24.50;38.10;;;;;;4767265;29;20483;-65
2022/08/13 05:40:56;;;;;;;2.17;2.07;;;24.50;38.00;;;;;;4766294;29;21252;-61
2022/08/13 05:43:24;;;;;;;2.43;2.23;;;24.50;37.90;;;;;;4760737;29;21033;-62
2022/08/13 05:45:57;;;;;;;2.53;2.33;;;24.50;37.80;;;;;;4751843;29;20459;-60
2022/08/13 05:48:23;;;;;;;2.50;2.37;;;24.50;37.60;;;;;;4759353;29;20480;-65
2022/08/13 05:50:49;;;;;;;2.50;2.30;;;24.50;38.50;;;;;;4761898;29;20954;-59
2022/08/13 05:53:16;;;;;;;2.30;2.20;;;24.50;37.60;;;;;;4762789;29;20469;-60
2022/08/13 05:55:42;;;;;;;2.90;2.70;;;24.60;37.70;;;;;;4760468;29;20237;-66
2022/08/13 05:58:10;;;;;;;3.30;2.40;;;24.60;37.70;;;;;;4758134;29;20861;-62
2022/08/13 06:03:31;;;;;;;2.23;2.13;;;24.60;37.70;;;;;;4753888;29;21104;-62
2022/08/13 06:06:01;;;;;;;2.63;2.40;;;24.60;37.70;;;;;;4758638;29;20637;-61
2022/08/13 06:08:34;;;;;;;2.20;2.10;;;24.60;37.70;;;;;;4759938;29;20837;-66
2022/08/13 06:11:03;;;;;;;2.37;2.27;;;24.60;37.70;;;;;;4750817;29;20984;-67
2022/08/13 06:13:28;;;;;;;2.70;2.50;;;24.60;37.70;;;;;;4761869;29;20475;-61
2022/08/13 06:15:58;;;;;;;2.30;2.20;;;24.60;37.70;;;;;;4749157;29;20469;-62
2022/08/13 06:18:30;;;;;;;2.60;2.40;;;24.60;37.70;;;;;;4755347;29;20232;-61
2022/08/13 06:20:58;;;;;;;2.60;2.40;;;24.60;37.70;;;;;;4754589;29;21051;-65
2022/08/13 06:23:27;;;;;;;2.63;2.43;;;24.60;37.70;;;;;;4762615;29;20456;-61
2022/08/13 06:25:54;;;;;;;2.10;2.00;;;24.60;37.70;;;;;;4763360;29;20464;-66
2022/08/13 06:28:22;;;;;;;2.43;2.17;;;24.60;37.70;;;;;;4763791;29;20471;-62
2022/08/13 06:30:50;;;;;;;2.40;2.30;;;24.60;37.70;;;;;;4764162;29;20935;-61
2022/08/13 06:33:21;;;;;;;2.90;2.50;;;24.60;37.70;;;;;;4761872;29;20986;-61
2022/08/13 06:36:07;;;;;;;2.50;2.40;;;24.60;37.70;;;;;;4765818;29;20490;-62
2022/08/13 06:38:36;;;;;;;2.87;2.67;;;24.60;37.70;;;;;;4765782;29;20503;-71
2022/08/13 06:41:04;;;;;;;2.60;2.50;;;24.60;37.70;;;;;;4767486;29;20514;-64
2022/08/13 06:43:35;;;;;;;2.70;2.60;;;24.60;37.70;;;;;;4764875;29;20491;-61
2022/08/13 06:46:03;;;;;;;3.50;3.30;;;24.60;37.70;;;;;;4760272;29;20496;-63
2022/08/13 06:48:29;;;;;;;2.60;2.50;;;24.60;37.70;;;;;;4764324;29;20481;-64
2022/08/13 06:50:55;;;;;;;2.47;2.30;;;24.60;37.70;;;;;;4762794;29;20517;-66
2022/08/13 06:53:21;;;;;;;2.70;2.60;;;24.60;37.70;;;;;;4761118;29;21531;-69
2022/08/13 06:55:49;;;;;;;2.80;2.70;;;24.60;37.70;;;;;;4755455;29;20507;-61
2022/08/13 06:58:16;;;;;;;5.33;2.57;;;24.60;37.70;;;;;;4768327;29;20242;-61
2022/08/13 07:00:42;;;;;;;2.87;2.77;;;24.60;37.50;;;;;;4769008;29;20615;-66
2022/08/13 07:03:10;;;;;;;2.40;2.30;;;24.60;37.60;;;;;;4763043;29;20490;-66
2022/08/13 07:05:38;;;;;;;2.97;2.77;;;24.60;37.70;;;;;;4758549;29;20471;-65
2022/08/13 07:08:13;;;;;;;3.60;2.60;;;24.70;37.80;;;;;;4759213;29;20495;-61
2022/08/13 07:10:43;;;;;;;3.17;2.90;;;24.60;37.70;;;;;;4758972;29;20476;-61
2022/08/13 07:13:09;;;;;;;5.07;2.90;;;24.60;37.60;;;;;;4754004;29;20496;-69
2022/08/13 07:15:36;;;;;;;3.00;2.70;;;24.60;37.00;;;;;;4765152;29;20472;-67
2022/08/13 07:18:05;;;;;;;3.00;2.40;;;24.60;36.90;;;;;;4756125;29;20526;-63
2022/08/13 07:20:31;;;;;;;2.77;2.57;;;24.60;36.80;;;;;;4769570;29;20467;-62
2022/08/13 07:22:58;;;;;;;2.57;2.40;;;24.60;36.80;;;;;;4754072;29;20651;-60
2022/08/13 07:25:30;;;;;;;2.30;2.20;;;24.60;36.70;;;;;;4742726;29;20495;-70
2022/08/13 07:27:58;;;;;;;5.33;2.80;;;24.60;36.70;;;;;;4757386;29;20468;-66
2022/08/13 07:30:25;;;;;;;2.80;2.60;;;24.60;36.50;;;;;;4760290;29;20475;-62
2022/08/13 07:32:51;;;;;;;3.03;2.80;;;24.60;36.20;;;;;;4757356;29;20517;-61
2022/08/13 07:35:18;;;;;;;2.93;2.70;;;24.60;36.00;;;;;;4767560;29;20476;-62
2022/08/13 07:37:43;;;;;;;2.93;2.73;;;24.70;35.90;;;;;;4761562;29;20466;-60
2022/08/13 07:40:10;;;;;;;6.37;2.43;;;24.70;35.80;;;;;;4763840;29;20529;-66
2022/08/13 07:42:39;;;;;;;2.70;2.50;;;24.70;35.70;;;;;;4766646;29;20239;-64
2022/08/13 07:45:09;;;;;;;4.17;2.57;;;24.70;35.70;;;;;;4770692;29;20455;-66
2022/08/13 07:47:37;;;;;;;2.87;2.67;;;24.60;35.60;;;;;;4766710;29;20484;-61
2022/08/13 07:50:05;;;;;;;2.73;2.50;;;24.70;35.60;;;;;;4769349;29;20551;-64
2022/08/13 07:52:32;;;;;;;3.40;2.70;;;24.70;35.60;;;;;;4768306;29;20516;-60
2022/08/13 07:55:01;;;;;;;2.50;2.30;;;24.70;35.70;;;;;;4765161;29;20496;-60
2022/08/13 07:57:31;;;;;;;2.13;2.03;;;24.70;35.70;;;;;;4769767;29;20491;-61
2022/08/13 07:59:57;;;;;;;2.50;2.40;;;24.70;35.90;;;;;;4763485;29;20471;-60
2022/08/13 08:02:26;;;;;;;2.70;2.50;;;24.60;35.70;;;;;;4767278;29;20471;-60
2022/08/13 08:04:55;;;;;;;2.40;2.20;;;24.60;36.40;;;;;;4763936;29;20231;-60
2022/08/13 08:07:22;;;;;;;2.63;2.43;;;24.70;35.70;;;;;;4770624;29;20516;-59
2022/08/13 08:09:50;;;;;;;2.40;2.30;;;24.60;35.60;;;;;;4767806;29;21230;-59
2022/08/13 08:12:35;;;;;;;2.00;1.90;;;24.70;35.60;;;;;;4768609;29;21284;-63
2022/08/13 08:15:05;;;;;;;2.83;2.27;;;24.70;35.60;;;;;;4758327;29;20465;-62
2022/08/13 08:17:31;;;;;;;2.30;2.20;;;24.60;35.40;;;;;;4756648;29;20535;-63
2022/08/13 08:19:57;;;;;;;2.40;2.30;;;24.70;35.60;;;;;;4765182;29;21062;-63
2022/08/13 08:22:23;;;;;;;2.27;2.17;;;24.60;35.60;;;;;;4771012;29;20246;-61
2022/08/13 08:24:50;;;;;;;2.47;2.30;;;24.60;35.80;;;;;;4764700;29;20459;-63
2022/08/13 08:27:17;;;;;;;2.60;2.50;;;24.60;35.90;;;;;;4763229;29;20475;-60
2022/08/13 08:29:44;;;;;;;2.87;2.67;;;24.60;36.10;;;;;;4765886;29;20480;-61
2022/08/13 08:32:12;;;;;;;2.73;2.63;;;24.60;36.20;;;;;;4765188;29;20843;-61
2022/08/13 08:34:41;;;;;;;2.30;2.10;;;24.60;36.50;;;;;;4765671;29;20484;-68
2022/08/13 08:37:08;;;;;;;2.30;2.20;;;24.60;36.50;;;;;;4768319;29;20513;-69
2022/08/13 08:42:36;;;;;;;2.60;2.40;;;24.60;36.60;;;;;;4764253;29;20528;-63
2022/08/13 08:45:08;;;;;;;2.70;2.60;;;24.60;36.70;;;;;;4754708;29;20842;-62
2022/08/13 08:47:37;;;;;;;2.77;2.53;;;24.60;36.80;;;;;;4766503;29;20464;-61
2022/08/13 08:50:05;;;;;;;3.60;2.60;;;24.60;36.90;;;;;;4768988;29;20470;-63
2022/08/13 08:55:17;;;;;;;2.40;2.20;;;24.60;37.10;;;;;;4759783;29;20566;-61
2022/08/13 08:57:44;;;;;;;3.43;2.47;;;24.60;37.10;;;;;;4761957;29;20488;-66
2022/08/13 09:00:19;;;;;;;2.00;1.90;;;24.70;37.10;;;;;;4756976;29;20485;-61
2022/08/13 09:02:48;;;;;;;2.37;2.27;;;24.60;36.90;;;;;;4757758;29;20951;-64
2022/08/13 09:05:20;;;;;;;2.40;2.30;;;24.60;37.10;;;;;;4760134;29;20569;-60
2022/08/13 09:07:47;;;;;;;2.43;2.33;;;24.60;38.10;;;;;;4757106;29;20952;-61
2022/08/13 09:10:15;;;;;;;2.20;2.10;;;24.60;37.20;;;;;;4759294;29;20548;-60
2022/08/13 09:12:44;;;;;;;2.93;2.73;;;24.60;37.30;;;;;;4744692;29;20473;-70
2022/08/13 09:15:11;;;;;;;2.10;2.00;;;24.60;37.50;;;;;;4755429;29;20484;-62
2022/08/13 09:17:38;;;;;;;2.10;2.00;;;24.60;37.30;;;;;;4758515;29;20517;-61
2022/08/13 09:20:10;;;;;;;1.93;1.83;;;24.60;37.20;;;;;;4752583;29;20472;-63
2022/08/13 09:22:36;;;;;;;2.43;2.23;;;24.60;37.00;;;;;;4763451;29;20473;-65
2022/08/13 09:25:02;;;;;;;2.43;2.23;;;24.60;36.90;;;;;;4754717;29;21270;-67
2022/08/13 09:27:30;;;;;;;2.20;2.00;;;24.60;37.00;;;;;;4757969;29;20514;-61
2022/08/13 09:29:56;;;;;;;2.20;2.10;;;24.60;37.00;;;;;;4761610;29;20235;-60
2022/08/13 09:32:22;;;;;;;1.70;1.60;;;24.60;37.00;;;;;;4763238;29;21357;-69
2022/08/13 09:34:48;;;;;;;2.30;2.20;;;24.60;36.90;;;;;;4759248;29;20707;-63
2022/08/13 09:37:16;;;;;;;2.37;2.17;;;24.60;36.80;;;;;;4757567;29;20487;-66
2022/08/13 09:39:52;;;;;;;2.10;2.00;;;24.60;36.80;;;;;;4764565;29;20234;-70
2022/08/13 09:42:25;;;;;;;2.10;2.00;;;24.60;36.70;;;;;;4758208;29;20570;-67
2022/08/13 09:44:56;;;;;;;1.97;1.87;;;24.60;36.70;;;;;;4757071;29;20471;-66
2022/08/13 09:47:23;;;;;;;2.37;2.27;;;24.60;36.60;;;;;;4758055;29;20468;-63
2022/08/13 09:49:50;;;;;;;2.40;2.07;;;24.60;36.60;;;;;;4756439;29;20494;-63
2022/08/13 09:52:16;;;;;;;1.93;1.73;;;24.60;36.60;;;;;;4748642;29;20831;-63
2022/08/13 09:54:43;;;;;;;1.97;1.87;;;24.60;36.50;;;;;;4754732;29;20485;-62
2022/08/13 09:57:10;;;;;;;1.93;1.83;;;24.60;36.60;;;;;;4747259;29;20266;-62
2022/08/13 09:59:35;;;;;;;5.63;2.40;;;24.60;36.50;;;;;;4762322;29;20448;-69
2022/08/13 10:02:08;;;;;;;38.80;3.90;;;24.60;36.50;;;;;;4761680;29;20477;-63
2022/08/13 10:04:33;;;;;;;17.70;3.00;;;24.60;36.30;;;;;;4753238;29;20398;-65
2022/08/13 10:07:00;;;;;;;6.40;2.20;;;24.50;36.30;;;;;;4761258;29;21229;-64
2022/08/13 10:09:26;;;;;;;7.37;2.47;;;24.50;36.30;;;;;;4759912;29;20716;-68
2022/08/13 10:11:53;;;;;;;8.63;2.03;;;24.50;36.40;;;;;;4763949;29;20543;-64
2022/08/13 10:14:19;;;;;;;5.50;2.93;;;24.50;36.40;;;;;;4758134;29;20972;-64
2022/08/13 10:16:44;;;;;;;1.97;1.87;;;24.50;36.50;;;;;;4763733;29;20464;-62
2022/08/13 10:19:10;;;;;;;7.47;2.47;;;24.50;36.60;;;;;;4761242;29;20235;-71
2022/08/13 10:21:36;;;;;;;2.70;2.50;;;24.50;36.80;;;;;;4762146;29;20239;-68
2022/08/13 10:24:02;;;;;;;3.30;3.10;;;24.50;36.80;;;;;;4760428;29;20236;-60
2022/08/13 10:26:27;;;;;;;2.20;2.00;;;24.50;37.00;;;;;;4764057;29;20240;-62
2022/08/13 10:28:53;;;;;;;3.10;1.90;;;24.50;37.10;;;;;;4761002;29;20542;-60
2022/08/13 10:31:18;;;;;;;2.40;2.30;;;24.50;37.20;;;;;;4761096;29;20228;-62
2022/08/13 10:33:44;;;;;;;3.07;2.00;;;24.50;37.20;;;;;;4758181;29;20239;-61
2022/08/13 10:36:11;;;;;;;2.40;2.20;;;24.50;37.00;;;;;;4763497;29;20723;-62
2022/08/13 10:38:37;;;;;;;3.00;2.13;;;24.50;37.20;;;;;;4759125;29;20755;-68
2022/08/13 10:41:07;;;;;;;2.93;2.63;;;24.50;37.50;;;;;;4762529;29;20469;-63
2022/08/13 10:43:35;;;;;;;2.20;2.00;;;24.50;37.60;;;;;;4760940;29;20234;-63
2022/08/13 10:46:00;;;;;;;4.27;2.53;;;24.50;37.60;;;;;;4751324;29;21357;-63
2022/08/13 10:48:27;;;;;;;2.10;2.00;;;24.50;37.60;;;;;;4751559;29;21476;-62
2022/08/13 10:50:54;;;;;;;2.50;2.10;;;24.50;37.60;;;;;;4756305;29;20627;-68
2022/08/13 10:56:11;;;;;;;2.00;1.90;;;24.50;37.50;;;;;;4760502;29;20567;-61
2022/08/13 10:58:39;;;;;;;2.67;2.47;;;24.50;37.40;;;;;;4762163;29;20472;-63
2022/08/13 11:01:04;;;;;;;3.30;2.53;;;24.50;37.40;;;;;;4753062;29;20590;-64
2022/08/13 11:03:31;;;;;;;2.00;1.90;;;24.50;37.60;;;;;;4756794;29;20472;-61
2022/08/13 11:05:59;;;;;;;2.50;2.30;;;24.50;37.60;;;;;;4765151;29;20240;-63
2022/08/13 11:08:37;;;;;;;2.70;2.50;;;24.50;37.60;;;;;;4757873;29;20479;-64
2022/08/13 11:11:08;;;;;;;2.60;2.50;;;24.50;37.60;;;;;;4763389;29;20490;-61
2022/08/13 11:13:38;;;;;;;2.30;2.20;;;24.50;37.60;;;;;;4763180;29;20603;-61
2022/08/13 11:18:50;;;;;;;5.70;2.80;;;24.50;37.60;;;;;;4764126;29;20498;-65
2022/08/13 11:21:15;;;;;;;2.40;2.30;;;24.50;37.60;;;;;;4767244;29;20499;-61
2022/08/13 11:23:41;;;;;;;2.43;2.33;;;24.50;37.60;;;;;;4764337;29;20310;-63
2022/08/13 11:26:06;;;;;;;2.60;2.50;;;24.50;37.60;;;;;;4765744;29;20315;-63
2022/08/13 11:28:32;;;;;;;2.37;2.27;;;24.50;37.60;;;;;;4762506;29;20247;-63
2022/08/13 11:30:57;;;;;;;2.10;2.00;;;24.50;37.60;;;;;;4764459;29;20547;-64
2022/08/13 11:33:26;;;;;;;2.80;2.70;;;24.50;37.60;;;;;;4761432;29;20807;-61
2022/08/13 11:35:52;;;;;;;1.97;1.87;;;24.50;37.60;;;;;;4763882;29;20764;-62
2022/08/13 11:38:21;;;;;;;2.23;2.13;;;24.50;37.60;;;;;;4762442;29;20907;-68
2022/08/13 11:40:53;;;;;;;2.73;2.33;;;24.50;37.60;;;;;;4763262;29;20469;-67
2022/08/13 11:43:19;;;;;;;2.80;2.57;;;24.50;37.60;;;;;;4760469;29;20468;-65
2022/08/13 11:45:45;;;;;;;2.10;2.00;;;24.50;37.60;;;;;;4761796;29;20480;-60
2022/08/13 11:48:20;;;;;;;2.50;2.40;;;24.50;37.60;;;;;;4751636;29;20484;-60
2022/08/13 11:50:50;;;;;;;2.63;2.53;;;24.50;37.60;;;;;;4758178;29;20480;-60
2022/08/13 11:53:17;;;;;;;2.63;2.53;;;24.50;37.60;;;;;;4762052;29;20924;-62
2022/08/13 11:55:43;;;;;;;2.70;2.60;;;24.50;37.60;;;;;;4760648;29;20500;-61
2022/08/13 11:58:10;;;;;;;2.73;2.53;;;24.50;37.60;;;;;;4763048;29;20530;-62
2022/08/13 12:00:37;;;;;;;2.90;2.73;;;24.50;37.60;;;;;;4764020;29;20332;-66
2022/08/13 12:03:05;;;;;;;2.90;2.70;;;24.50;37.60;;;;;;4766892;29;20465;-61
2022/08/13 12:05:30;;;;;;;3.33;3.13;;;24.50;37.80;;;;;;4763808;29;20472;-63
2022/08/13 12:07:56;;;;;;;3.20;3.10;;;24.50;38.10;;;;;;4765169;29;20494;-63
2022/08/13 12:10:22;;;;;;;2.83;2.73;;;24.40;38.10;;;;;;4764237;29;20243;-61
2022/08/13 12:12:48;;;;;;;2.50;2.40;;;24.50;38.30;;;;;;4762111;29;20255;-63
2022/08/13 12:15:14;;;;;;;2.90;2.80;;;24.50;38.20;;;;;;4759534;29;20236;-70
2022/08/13 12:17:44;;;;;;;2.83;2.73;;;24.50;38.10;;;;;;4763228;29;20236;-63
2022/08/13 12:20:13;;;;;;;2.80;2.60;;;24.40;38.20;;;;;;4760842;29;20476;-65
2022/08/13 12:22:40;;;;;;;4.03;3.83;;;24.50;38.20;;;;;;4763157;29;21043;-61
2022/08/13 12:25:07;;;;;;;2.93;2.83;;;24.50;39.10;;;;;;4764871;29;20478;-65
2022/08/13 12:27:32;;;;;;;3.73;3.53;;;24.40;38.30;;;;;;4763190;29;20460;-63
2022/08/13 12:29:58;;;;;;;2.40;2.30;;;24.40;38.50;;;;;;4766297;29;20478;-67
2022/08/13 12:32:23;;;;;;;2.83;2.63;;;24.40;38.30;;;;;;4761363;29;20231;-66
2022/08/13 12:34:49;;;;;;;3.17;3.03;;;24.50;39.00;;;;;;4767243;29;20319;-61
2022/08/13 12:37:14;;;;;;;3.50;3.30;;;24.40;38.20;;;;;;4766443;29;20262;-59
2022/08/13 12:39:40;;;;;;;3.80;3.60;;;24.50;38.40;;;;;;4753881;29;20842;-65
2022/08/13 12:42:06;;;;;;;3.40;3.30;;;24.40;38.40;;;;;;4764892;29;20224;-63
2022/08/13 12:44:31;;;;;;;2.80;2.60;;;24.50;38.60;;;;;;4765086;29;20235;-64
2022/08/13 12:46:57;;;;;;;3.40;3.20;;;24.50;38.60;;;;;;4768155;29;20294;-61
2022/08/13 12:49:23;;;;;;;3.43;3.33;;;24.50;38.60;;;;;;4763788;29;20808;-64
2022/08/13 12:51:48;;;;;;;3.53;3.37;;;24.50;38.70;;;;;;4763729;29;20232;-61
2022/08/13 12:54:16;;;;;;;3.40;3.30;;;24.50;38.90;;;;;;4768022;29;20356;-67
2022/08/13 12:56:42;;;;;;;3.30;3.20;;;24.50;39.00;;;;;;4763734;29;20280;-61
2022/08/13 12:59:08;;;;;;;3.77;3.30;;;24.50;39.00;;;;;;4768570;29;20473;-63
2022/08/13 13:01:33;;;;;;;3.77;3.57;;;24.40;38.90;;;;;;4768055;29;20595;-63
2022/08/13 13:03:59;;;;;;;3.80;3.60;;;24.40;39.10;;;;;;4765654;29;20318;-61
2022/08/13 13:06:25;;;;;;;4.00;3.80;;;24.40;39.10;;;;;;4764394;29;20263;-61
2022/08/13 13:08:50;;;;;;;4.20;4.00;;;24.40;39.20;;;;;;4765743;29;20955;-59
2022/08/13 13:11:16;;;;;;;3.63;3.50;;;24.40;39.20;;;;;;4764015;29;20232;-61